Jenison, MI (49428)

1:01 PM EDT on September 02, 2015 (GMT -0400)
Hunters Meadows | | Change Station
CLOSE
Current Station
Personal Weather Station
Location: Hudsonville, MI
Elevation: 686 ft
Nearby Weather Stations

Elev 686 ft 42.89 °N, 85.87 °W | Updated 13 seconds ago

Clear
Clear
85.5 °F
Feels Like 95 °F
N
4.5
Wind Variable Wind from NNE
Gusts 4.5 mph

Today
High -- | Low -- °F
--% Chance of Precip.
Yesterday
High -- | Low -- °F
Precip. -- in
7:08 AM 8:16 PM
Waning Gibbous, 79% visible
Pressure 30.00 in
Visibility 8.0 miles
Clouds Few 2500 ft
Heat Index 95 °F
Dew Point 76 °F
Humidity 72%
Rainfall 0.07 in
Snow Depth Not available.
UV 8 out of 12
Pollen 10.40 out of 12
Air Quality Not available.
Flu Activity Not available.
METAR KGRR 021653Z 26008KT 8SM FEW025 29/23 A3002 RMK AO2 SLP159 T02940228
Pressure 30.00 in
Visibility 8.0 miles
Clouds Few 2500 ft
Heat Index 95 °F
Dew Point 76 °F
Humidity 72%
Rainfall 0.07 in
Snow Depth Not available.
UV 8 out of 12
Pollen 10.40 out of 12
Air Quality Not available.
Flu Activity Not available.
METAR KGRR 021653Z 26008KT 8SM FEW025 29/23 A3002 RMK AO2 SLP159 T02940228

10-Day Weather Forecast

×

Almanac

Astronomy

Sep. 02, 2015 Rise Set
Actual Time
Civil Twilight
Nautical Twilight
Astronomical Twilight
Moon
Length of Visible Light
Length of Day
Tomorrow will be .
, % of the Moon is Illuminated

Today's Extremes

State Highs State Lows

Community

WunderPhotos

Upload Photos

1,851,785 photos uploaded!

WunderBlogs® & News

Nearby

Air Quality

  Air Quality AQ Index Pollutant
Not available.

Snow Depth

Station Depth Elevation

Earthquake Activity

City Distance Mag. Time & Date
Minimum magnitude displayed is 2.5.

Coastal Water Temperatures

Place Temperature

Stations

Nearby Weather Stations

Station Location Temp. Windchill Dew Point Humidity Wind Precip. Elev Updated Type